sensor_id;sensor_type;location;lat;lon;timestamp;P1;durP1;ratioP1;P2;durP2;ratioP2
59099;SDS011;44884;52.730;6.964;2022-10-17T00:01:57;3.38;;;2.63;;
59099;SDS011;44884;52.730;6.964;2022-10-17T00:04:23;2.88;;;2.53;;
59099;SDS011;44884;52.730;6.964;2022-10-17T00:06:48;3.67;;;2.78;;
59099;SDS011;44884;52.730;6.964;2022-10-17T00:09:14;3.03;;;2.60;;
59099;SDS011;44884;52.730;6.964;2022-10-17T00:11:40;3.08;;;2.30;;
59099;SDS011;44884;52.730;6.964;2022-10-17T00:14:07;3.55;;;2.80;;
59099;SDS011;44884;52.730;6.964;2022-10-17T00:16:34;3.15;;;2.35;;
59099;SDS011;44884;52.730;6.964;2022-10-17T00:19:02;3.00;;;2.70;;
59099;SDS011;44884;52.730;6.964;2022-10-17T00:21:28;3.63;;;2.88;;
59099;SDS011;44884;52.730;6.964;2022-10-17T00:23:54;4.03;;;2.90;;
59099;SDS011;44884;52.730;6.964;2022-10-17T00:26:21;3.95;;;3.03;;
59099;SDS011;44884;52.730;6.964;2022-10-17T00:28:47;3.03;;;2.65;;
59099;SDS011;44884;52.730;6.964;2022-10-17T00:31:14;4.13;;;2.45;;
59099;SDS011;44884;52.730;6.964;2022-10-17T00:33:40;7.13;;;3.40;;
59099;SDS011;44884;52.730;6.964;2022-10-17T00:36:09;2.92;;;2.63;;
59099;SDS011;44884;52.730;6.964;2022-10-17T00:38:37;2.67;;;2.47;;
59099;SDS011;44884;52.730;6.964;2022-10-17T00:41:03;4.22;;;2.95;;
59099;SDS011;44884;52.730;6.964;2022-10-17T00:43:47;4.85;;;2.83;;
59099;SDS011;44884;52.730;6.964;2022-10-17T00:46:13;3.53;;;2.50;;
59099;SDS011;44884;52.730;6.964;2022-10-17T00:48:39;3.72;;;2.85;;
59099;SDS011;44884;52.730;6.964;2022-10-17T00:51:05;2.67;;;2.40;;
59099;SDS011;44884;52.730;6.964;2022-10-17T00:53:32;3.83;;;2.60;;
59099;SDS011;44884;52.730;6.964;2022-10-17T00:55:58;5.78;;;2.90;;
59099;SDS011;44884;52.730;6.964;2022-10-17T00:58:24;3.72;;;2.47;;
59099;SDS011;44884;52.730;6.964;2022-10-17T01:00:50;6.07;;;2.72;;
59099;SDS011;44884;52.730;6.964;2022-10-17T01:03:16;2.70;;;2.22;;
59099;SDS011;44884;52.730;6.964;2022-10-17T01:05:42;4.05;;;2.55;;
59099;SDS011;44884;52.730;6.964;2022-10-17T01:08:08;3.47;;;2.35;;
59099;SDS011;44884;52.730;6.964;2022-10-17T01:13:19;4.60;;;2.50;;
59099;SDS011;44884;52.730;6.964;2022-10-17T01:16:07;3.78;;;2.78;;
59099;SDS011;44884;52.730;6.964;2022-10-17T01:18:39;2.78;;;2.30;;
59099;SDS011;44884;52.730;6.964;2022-10-17T01:21:19;3.83;;;2.65;;
59099;SDS011;44884;52.730;6.964;2022-10-17T01:24:02;3.80;;;2.60;;
59099;SDS011;44884;52.730;6.964;2022-10-17T01:26:48;3.15;;;2.72;;
59099;SDS011;44884;52.730;6.964;2022-10-17T01:42:18;2.53;;;2.33;;
59099;SDS011;44884;52.730;6.964;2022-10-17T01:44:54;2.70;;;2.15;;
59099;SDS011;44884;52.730;6.964;2022-10-17T01:47:24;5.43;;;3.22;;
59099;SDS011;44884;52.730;6.964;2022-10-17T01:49:51;2.97;;;2.70;;
59099;SDS011;44884;52.730;6.964;2022-10-17T01:52:34;2.72;;;2.40;;
59099;SDS011;44884;52.730;6.964;2022-10-17T01:55:05;5.57;;;2.92;;
59099;SDS011;44884;52.730;6.964;2022-10-17T01:57:40;8.20;;;2.47;;
59099;SDS011;44884;52.730;6.964;2022-10-17T02:00:08;3.80;;;3.03;;
59099;SDS011;44884;52.730;6.964;2022-10-17T02:02:36;3.17;;;2.50;;
59099;SDS011;44884;52.730;6.964;2022-10-17T02:05:02;3.72;;;2.85;;
59099;SDS011;44884;52.730;6.964;2022-10-17T02:07:29;3.70;;;2.50;;
59099;SDS011;44884;52.730;6.964;2022-10-17T02:09:55;3.97;;;2.53;;
59099;SDS011;44884;52.730;6.964;2022-10-17T02:17:46;3.30;;;2.67;;
59099;SDS011;44884;52.730;6.964;2022-10-17T02:20:23;4.40;;;2.63;;
59099;SDS011;44884;52.730;6.964;2022-10-17T02:32:35;2.95;;;2.25;;
59099;SDS011;44884;52.730;6.964;2022-10-17T02:35:03;2.70;;;2.17;;
59099;SDS011;44884;52.730;6.964;2022-10-17T02:37:32;4.90;;;2.72;;
59099;SDS011;44884;52.730;6.964;2022-10-17T02:39:59;2.85;;;2.65;;
59099;SDS011;44884;52.730;6.964;2022-10-17T02:42:25;2.65;;;2.45;;
59099;SDS011;44884;52.730;6.964;2022-10-17T02:44:52;6.57;;;2.53;;
59099;SDS011;44884;52.730;6.964;2022-10-17T02:49:49;2.60;;;2.30;;
59099;SDS011;44884;52.730;6.964;2022-10-17T02:52:18;2.83;;;2.45;;
59099;SDS011;44884;52.730;6.964;2022-10-17T02:54:47;3.80;;;2.45;;
59099;SDS011;44884;52.730;6.964;2022-10-17T02:57:37;2.28;;;2.08;;
59099;SDS011;44884;52.730;6.964;2022-10-17T03:00:03;3.20;;;1.95;;
59099;SDS011;44884;52.730;6.964;2022-10-17T03:02:37;3.58;;;2.83;;
59099;SDS011;44884;52.730;6.964;2022-10-17T03:05:03;2.25;;;2.05;;
59099;SDS011;44884;52.730;6.964;2022-10-17T03:07:29;2.63;;;2.42;;
59099;SDS011;44884;52.730;6.964;2022-10-17T03:09:55;2.67;;;2.47;;
59099;SDS011;44884;52.730;6.964;2022-10-17T03:12:21;3.05;;;2.63;;
59099;SDS011;44884;52.730;6.964;2022-10-17T03:14:47;2.60;;;2.40;;
59099;SDS011;44884;52.730;6.964;2022-10-17T03:17:13;3.03;;;2.72;;
59099;SDS011;44884;52.730;6.964;2022-10-17T03:19:39;2.92;;;2.50;;
59099;SDS011;44884;52.730;6.964;2022-10-17T03:22:05;2.53;;;2.33;;
59099;SDS011;44884;52.730;6.964;2022-10-17T03:24:31;2.38;;;2.17;;
59099;SDS011;44884;52.730;6.964;2022-10-17T03:26:57;3.08;;;2.58;;
59099;SDS011;44884;52.730;6.964;2022-10-17T03:29:23;3.33;;;2.58;;
59099;SDS011;44884;52.730;6.964;2022-10-17T03:31:49;2.45;;;2.20;;
59099;SDS011;44884;52.730;6.964;2022-10-17T03:34:15;2.53;;;2.33;;
59099;SDS011;44884;52.730;6.964;2022-10-17T03:36:42;2.17;;;1.98;;
59099;SDS011;44884;52.730;6.964;2022-10-17T03:39:08;2.47;;;2.28;;
59099;SDS011;44884;52.730;6.964;2022-10-17T03:41:34;2.75;;;2.55;;
59099;SDS011;44884;52.730;6.964;2022-10-17T03:44:01;5.43;;;2.58;;
59099;SDS011;44884;52.730;6.964;2022-10-17T03:46:27;2.38;;;2.13;;
59099;SDS011;44884;52.730;6.964;2022-10-17T03:48:52;2.58;;;2.35;;
59099;SDS011;44884;52.730;6.964;2022-10-17T03:51:19;2.90;;;2.38;;
59099;SDS011;44884;52.730;6.964;2022-10-17T03:53:45;2.85;;;2.55;;
59099;SDS011;44884;52.730;6.964;2022-10-17T03:56:14;3.92;;;2.42;;
59099;SDS011;44884;52.730;6.964;2022-10-17T03:58:41;3.78;;;2.45;;
59099;SDS011;44884;52.730;6.964;2022-10-17T04:01:08;2.67;;;2.47;;
59099;SDS011;44884;52.730;6.964;2022-10-17T04:03:35;5.82;;;2.92;;
59099;SDS011;44884;52.730;6.964;2022-10-17T04:06:01;3.30;;;2.92;;
59099;SDS011;44884;52.730;6.964;2022-10-17T04:08:28;2.88;;;2.17;;
59099;SDS011;44884;52.730;6.964;2022-10-17T04:10:58;4.30;;;2.63;;
59099;SDS011;44884;52.730;6.964;2022-10-17T04:13:24;2.85;;;2.47;;
59099;SDS011;44884;52.730;6.964;2022-10-17T04:16:00;2.67;;;2.38;;
59099;SDS011;44884;52.730;6.964;2022-10-17T04:18:26;3.55;;;2.78;;
59099;SDS011;44884;52.730;6.964;2022-10-17T04:20:52;4.97;;;2.85;;
59099;SDS011;44884;52.730;6.964;2022-10-17T04:23:18;3.10;;;2.80;;
59099;SDS011;44884;52.730;6.964;2022-10-17T04:25:44;3.72;;;2.72;;
59099;SDS011;44884;52.730;6.964;2022-10-17T04:28:10;2.90;;;2.40;;
59099;SDS011;44884;52.730;6.964;2022-10-17T04:30:36;4.13;;;2.85;;
59099;SDS011;44884;52.730;6.964;2022-10-17T04:33:03;3.20;;;2.90;;
59099;SDS011;44884;52.730;6.964;2022-10-17T04:35:29;3.35;;;3.00;;
59099;SDS011;44884;52.730;6.964;2022-10-17T04:37:55;3.53;;;3.15;;
59099;SDS011;44884;52.730;6.964;2022-10-17T04:40:21;4.93;;;3.17;;
59099;SDS011;44884;52.730;6.964;2022-10-17T04:42:47;3.60;;;2.90;;
59099;SDS011;44884;52.730;6.964;2022-10-17T04:45:13;2.90;;;2.65;;
59099;SDS011;44884;52.730;6.964;2022-10-17T04:47:39;3.25;;;2.80;;
59099;SDS011;44884;52.730;6.964;2022-10-17T04:50:05;2.75;;;2.53;;
59099;SDS011;44884;52.730;6.964;2022-10-17T04:52:33;2.92;;;2.70;;
59099;SDS011;44884;52.730;6.964;2022-10-17T04:55:01;3.33;;;3.03;;
59099;SDS011;44884;52.730;6.964;2022-10-17T04:57:27;3.15;;;2.95;;
59099;SDS011;44884;52.730;6.964;2022-10-17T04:59:53;2.88;;;2.60;;
59099;SDS011;44884;52.730;6.964;2022-10-17T05:02:19;4.03;;;2.92;;
59099;SDS011;44884;52.730;6.964;2022-10-17T05:04:45;3.47;;;2.67;;
59099;SDS011;44884;52.730;6.964;2022-10-17T05:07:11;2.53;;;2.33;;
59099;SDS011;44884;52.730;6.964;2022-10-17T05:09:37;3.95;;;2.72;;
59099;SDS011;44884;52.730;6.964;2022-10-17T05:12:03;2.80;;;2.60;;
59099;SDS011;44884;52.730;6.964;2022-10-17T05:14:29;3.42;;;3.13;;
59099;SDS011;44884;52.730;6.964;2022-10-17T05:16:55;3.70;;;2.90;;
59099;SDS011;44884;52.730;6.964;2022-10-17T05:19:21;3.03;;;2.78;;
59099;SDS011;44884;52.730;6.964;2022-10-17T05:21:47;2.40;;;2.25;;
59099;SDS011;44884;52.730;6.964;2022-10-17T05:24:13;3.28;;;2.95;;
59099;SDS011;44884;52.730;6.964;2022-10-17T05:26:39;5.80;;;2.78;;
59099;SDS011;44884;52.730;6.964;2022-10-17T05:29:05;3.60;;;2.85;;
59099;SDS011;44884;52.730;6.964;2022-10-17T05:31:31;3.53;;;2.92;;
59099;SDS011;44884;52.730;6.964;2022-10-17T05:34:01;3.45;;;3.15;;
59099;SDS011;44884;52.730;6.964;2022-10-17T05:36:27;3.88;;;2.33;;
59099;SDS011;44884;52.730;6.964;2022-10-17T05:38:53;2.75;;;2.55;;
59099;SDS011;44884;52.730;6.964;2022-10-17T05:41:19;3.45;;;2.78;;
59099;SDS011;44884;52.730;6.964;2022-10-17T05:43:45;4.00;;;2.85;;
59099;SDS011;44884;52.730;6.964;2022-10-17T05:46:12;2.58;;;2.38;;
59099;SDS011;44884;52.730;6.964;2022-10-17T05:48:38;3.20;;;2.90;;
59099;SDS011;44884;52.730;6.964;2022-10-17T05:51:05;2.70;;;2.50;;
59099;SDS011;44884;52.730;6.964;2022-10-17T05:53:33;3.45;;;2.75;;
59099;SDS011;44884;52.730;6.964;2022-10-17T05:56:00;3.35;;;2.58;;
59099;SDS011;44884;52.730;6.964;2022-10-17T05:58:27;3.53;;;3.08;;
59099;SDS011;44884;52.730;6.964;2022-10-17T06:00:57;3.05;;;2.75;;
59099;SDS011;44884;52.730;6.964;2022-10-17T06:03:23;2.90;;;2.70;;
59099;SDS011;44884;52.730;6.964;2022-10-17T06:05:49;4.18;;;3.42;;
59099;SDS011;44884;52.730;6.964;2022-10-17T06:08:16;5.97;;;2.95;;
59099;SDS011;44884;52.730;6.964;2022-10-17T06:10:42;6.50;;;3.47;;
59099;SDS011;44884;52.730;6.964;2022-10-17T06:13:08;3.30;;;2.75;;
59099;SDS011;44884;52.730;6.964;2022-10-17T06:15:34;3.25;;;2.95;;
59099;SDS011;44884;52.730;6.964;2022-10-17T06:18:00;3.00;;;2.75;;
59099;SDS011;44884;52.730;6.964;2022-10-17T06:20:26;4.28;;;3.10;;
59099;SDS011;44884;52.730;6.964;2022-10-17T06:22:51;3.70;;;3.28;;
59099;SDS011;44884;52.730;6.964;2022-10-17T06:25:17;2.75;;;2.55;;
59099;SDS011;44884;52.730;6.964;2022-10-17T06:27:43;3.75;;;3.38;;
59099;SDS011;44884;52.730;6.964;2022-10-17T06:30:09;3.30;;;3.00;;
59099;SDS011;44884;52.730;6.964;2022-10-17T06:32:35;3.45;;;2.90;;
59099;SDS011;44884;52.730;6.964;2022-10-17T06:35:01;3.35;;;3.05;;
59099;SDS011;44884;52.730;6.964;2022-10-17T06:37:31;3.22;;;2.92;;
59099;SDS011;44884;52.730;6.964;2022-10-17T06:39:57;3.25;;;2.95;;
59099;SDS011;44884;52.730;6.964;2022-10-17T06:42:23;3.67;;;2.83;;
59099;SDS011;44884;52.730;6.964;2022-10-17T06:44:49;3.65;;;3.35;;
59099;SDS011;44884;52.730;6.964;2022-10-17T06:47:15;7.18;;;3.38;;
59099;SDS011;44884;52.730;6.964;2022-10-17T06:49:41;7.93;;;3.47;;
59099;SDS011;44884;52.730;6.964;2022-10-17T06:52:08;2.97;;;2.58;;
59099;SDS011;44884;52.730;6.964;2022-10-17T06:54:34;4.18;;;2.95;;
59099;SDS011;44884;52.730;6.964;2022-10-17T06:57:00;3.80;;;3.17;;
59099;SDS011;44884;52.730;6.964;2022-10-17T06:59:26;3.83;;;3.38;;
59099;SDS011;44884;52.730;6.964;2022-10-17T07:01:52;4.13;;;2.90;;
59099;SDS011;44884;52.730;6.964;2022-10-17T07:04:18;3.60;;;3.28;;
59099;SDS011;44884;52.730;6.964;2022-10-17T07:06:44;3.15;;;2.85;;
59099;SDS011;44884;52.730;6.964;2022-10-17T07:09:10;4.50;;;3.78;;
59099;SDS011;44884;52.730;6.964;2022-10-17T07:11:36;3.33;;;2.83;;
59099;SDS011;44884;52.730;6.964;2022-10-17T07:14:04;3.50;;;3.20;;
59099;SDS011;44884;52.730;6.964;2022-10-17T07:16:30;3.30;;;3.00;;
59099;SDS011;44884;52.730;6.964;2022-10-17T07:18:56;3.47;;;3.10;;
59099;SDS011;44884;52.730;6.964;2022-10-17T07:21:22;3.88;;;3.47;;
59099;SDS011;44884;52.730;6.964;2022-10-17T07:23:48;5.30;;;3.17;;
59099;SDS011;44884;52.730;6.964;2022-10-17T07:26:14;4.80;;;3.55;;
59099;SDS011;44884;52.730;6.964;2022-10-17T07:28:41;3.58;;;3.28;;
59099;SDS011;44884;52.730;6.964;2022-10-17T07:31:11;4.05;;;3.63;;
59099;SDS011;44884;52.730;6.964;2022-10-17T07:33:38;4.20;;;3.60;;
59099;SDS011;44884;52.730;6.964;2022-10-17T07:36:05;3.50;;;3.15;;
59099;SDS011;44884;52.730;6.964;2022-10-17T07:38:31;3.67;;;3.30;;
59099;SDS011;44884;52.730;6.964;2022-10-17T07:40:58;4.00;;;3.35;;
59099;SDS011;44884;52.730;6.964;2022-10-17T07:43:25;5.57;;;3.35;;
59099;SDS011;44884;52.730;6.964;2022-10-17T07:45:51;3.60;;;3.30;;
59099;SDS011;44884;52.730;6.964;2022-10-17T07:48:17;3.72;;;3.42;;
59099;SDS011;44884;52.730;6.964;2022-10-17T07:50:43;3.50;;;3.20;;
59099;SDS011;44884;52.730;6.964;2022-10-17T07:53:09;3.65;;;3.17;;
59099;SDS011;44884;52.730;6.964;2022-10-17T07:55:36;3.42;;;3.10;;
59099;SDS011;44884;52.730;6.964;2022-10-17T07:58:02;4.72;;;3.80;;
59099;SDS011;44884;52.730;6.964;2022-10-17T08:00:28;4.70;;;3.33;;
59099;SDS011;44884;52.730;6.964;2022-10-17T08:02:54;4.13;;;3.15;;
59099;SDS011;44884;52.730;6.964;2022-10-17T08:05:20;3.85;;;3.55;;
59099;SDS011;44884;52.730;6.964;2022-10-17T08:07:46;4.70;;;3.55;;
59099;SDS011;44884;52.730;6.964;2022-10-17T08:10:12;2.95;;;2.72;;
59099;SDS011;44884;52.730;6.964;2022-10-17T08:12:39;3.45;;;3.17;;
59099;SDS011;44884;52.730;6.964;2022-10-17T08:15:06;3.78;;;3.28;;
59099;SDS011;44884;52.730;6.964;2022-10-17T08:17:36;4.55;;;3.70;;
59099;SDS011;44884;52.730;6.964;2022-10-17T08:20:03;5.22;;;4.72;;
59099;SDS011;44884;52.730;6.964;2022-10-17T08:22:29;10.98;;;5.03;;
59099;SDS011;44884;52.730;6.964;2022-10-17T08:24:55;5.55;;;4.75;;
59099;SDS011;44884;52.730;6.964;2022-10-17T08:27:21;6.78;;;5.65;;
59099;SDS011;44884;52.730;6.964;2022-10-17T08:29:52;6.13;;;5.20;;
59099;SDS011;44884;52.730;6.964;2022-10-17T08:32:19;11.40;;;6.20;;
59099;SDS011;44884;52.730;6.964;2022-10-17T08:34:45;7.43;;;5.80;;
59099;SDS011;44884;52.730;6.964;2022-10-17T08:37:11;7.93;;;5.97;;
59099;SDS011;44884;52.730;6.964;2022-10-17T08:39:38;8.15;;;6.05;;
59099;SDS011;44884;52.730;6.964;2022-10-17T08:47:16;9.20;;;6.60;;
59099;SDS011;44884;52.730;6.964;2022-10-17T08:49:46;10.18;;;6.43;;
59099;SDS011;44884;52.730;6.964;2022-10-17T08:52:35;9.63;;;6.18;;
59099;SDS011;44884;52.730;6.964;2022-10-17T08:54:59;10.85;;;6.43;;
59099;SDS011;44884;52.730;6.964;2022-10-17T08:57:25;11.57;;;6.63;;
59099;SDS011;44884;52.730;6.964;2022-10-17T08:59:52;8.25;;;6.70;;
59099;SDS011;44884;52.730;6.964;2022-10-17T09:02:30;11.02;;;7.40;;
59099;SDS011;44884;52.730;6.964;2022-10-17T09:13:09;7.65;;;6.78;;
59099;SDS011;44884;52.730;6.964;2022-10-17T09:20:35;8.60;;;6.80;;
59099;SDS011;44884;52.730;6.964;2022-10-17T09:23:10;9.85;;;7.22;;
59099;SDS011;44884;52.730;6.964;2022-10-17T09:25:42;13.65;;;6.90;;
59099;SDS011;44884;52.730;6.964;2022-10-17T09:30:41;9.02;;;6.55;;
59099;SDS011;44884;52.730;6.964;2022-10-17T09:33:09;8.75;;;6.82;;
59099;SDS011;44884;52.730;6.964;2022-10-17T09:35:36;8.07;;;6.53;;
59099;SDS011;44884;52.730;6.964;2022-10-17T09:38:03;11.88;;;6.32;;
59099;SDS011;44884;52.730;6.964;2022-10-17T09:40:30;12.50;;;7.03;;
59099;SDS011;44884;52.730;6.964;2022-10-17T09:42:57;8.85;;;6.78;;
59099;SDS011;44884;52.730;6.964;2022-10-17T09:45:25;7.47;;;5.70;;
59099;SDS011;44884;52.730;6.964;2022-10-17T09:47:56;9.68;;;6.82;;
59099;SDS011;44884;52.730;6.964;2022-10-17T09:50:26;10.60;;;6.78;;
59099;SDS011;44884;52.730;6.964;2022-10-17T09:52:53;8.65;;;6.95;;
59099;SDS011;44884;52.730;6.964;2022-10-17T09:55:20;10.35;;;6.75;;
59099;SDS011;44884;52.730;6.964;2022-10-17T09:57:55;12.48;;;8.02;;
59099;SDS011;44884;52.730;6.964;2022-10-17T10:00:23;10.25;;;7.25;;
59099;SDS011;44884;52.730;6.964;2022-10-17T10:02:49;7.38;;;6.57;;
59099;SDS011;44884;52.730;6.964;2022-10-17T10:05:16;11.32;;;7.40;;
59099;SDS011;44884;52.730;6.964;2022-10-17T10:07:44;12.02;;;7.30;;
59099;SDS011;44884;52.730;6.964;2022-10-17T10:10:23;10.68;;;7.00;;
59099;SDS011;44884;52.730;6.964;2022-10-17T10:17:57;7.93;;;6.70;;
59099;SDS011;44884;52.730;6.964;2022-10-17T10:25:34;11.70;;;6.72;;
59099;SDS011;44884;52.730;6.964;2022-10-17T10:28:00;7.07;;;6.25;;
59099;SDS011;44884;52.730;6.964;2022-10-17T10:30:28;8.95;;;7.03;;
59099;SDS011;44884;52.730;6.964;2022-10-17T10:32:55;7.55;;;6.80;;
59099;SDS011;44884;52.730;6.964;2022-10-17T10:35:23;10.63;;;7.68;;
59099;SDS011;44884;52.730;6.964;2022-10-17T10:37:51;8.85;;;7.13;;
59099;SDS011;44884;52.730;6.964;2022-10-17T10:40:19;11.80;;;7.65;;
59099;SDS011;44884;52.730;6.964;2022-10-17T10:42:46;8.40;;;6.95;;
59099;SDS011;44884;52.730;6.964;2022-10-17T10:45:18;9.93;;;6.15;;
59099;SDS011;44884;52.730;6.964;2022-10-17T10:48:19;11.43;;;6.90;;
59099;SDS011;44884;52.730;6.964;2022-10-17T10:55:51;10.13;;;6.93;;
59099;SDS011;44884;52.730;6.964;2022-10-17T10:58:24;10.18;;;6.75;;
59099;SDS011;44884;52.730;6.964;2022-10-17T11:00:51;10.30;;;7.50;;
59099;SDS011;44884;52.730;6.964;2022-10-17T11:06:18;8.07;;;6.88;;
59099;SDS011;44884;52.730;6.964;2022-10-17T11:11:19;10.20;;;7.38;;
59099;SDS011;44884;52.730;6.964;2022-10-17T11:14:00;11.82;;;7.70;;
59099;SDS011;44884;52.730;6.964;2022-10-17T11:16:31;11.52;;;7.00;;
59099;SDS011;44884;52.730;6.964;2022-10-17T11:22:08;12.98;;;7.30;;
59099;SDS011;44884;52.730;6.964;2022-10-17T11:24:37;8.48;;;6.30;;
59099;SDS011;44884;52.730;6.964;2022-10-17T11:27:05;9.40;;;7.15;;
59099;SDS011;44884;52.730;6.964;2022-10-17T11:29:38;10.02;;;7.03;;
59099;SDS011;44884;52.730;6.964;2022-10-17T11:32:39;9.65;;;6.75;;
59099;SDS011;44884;52.730;6.964;2022-10-17T11:34:59;6.32;;;5.72;;
59099;SDS011;44884;52.730;6.964;2022-10-17T11:37:26;6.68;;;6.07;;
59099;SDS011;44884;52.730;6.964;2022-10-17T11:39:54;7.70;;;5.50;;
59099;SDS011;44884;52.730;6.964;2022-10-17T11:42:24;7.68;;;6.20;;
59099;SDS011;44884;52.730;6.964;2022-10-17T11:44:52;9.18;;;6.80;;
59099;SDS011;44884;52.730;6.964;2022-10-17T11:47:37;7.22;;;6.38;;
59099;SDS011;44884;52.730;6.964;2022-10-17T11:52:52;8.70;;;5.75;;
59099;SDS011;44884;52.730;6.964;2022-10-17T11:55:20;9.00;;;6.45;;
59099;SDS011;44884;52.730;6.964;2022-10-17T12:03:20;10.25;;;5.63;;
59099;SDS011;44884;52.730;6.964;2022-10-17T12:18:44;6.53;;;5.82;;
59099;SDS011;44884;52.730;6.964;2022-10-17T12:21:10;5.40;;;4.85;;
59099;SDS011;44884;52.730;6.964;2022-10-17T12:23:37;7.88;;;6.68;;
59099;SDS011;44884;52.730;6.964;2022-10-17T12:26:05;8.30;;;5.82;;
59099;SDS011;44884;52.730;6.964;2022-10-17T12:28:44;6.55;;;5.40;;
59099;SDS011;44884;52.730;6.964;2022-10-17T12:33:52;6.68;;;5.32;;
59099;SDS011;44884;52.730;6.964;2022-10-17T12:38:48;5.78;;;4.68;;
59099;SDS011;44884;52.730;6.964;2022-10-17T12:41:15;6.90;;;5.40;;
59099;SDS011;44884;52.730;6.964;2022-10-17T12:43:45;10.82;;;5.30;;
59099;SDS011;44884;52.730;6.964;2022-10-17T12:46:12;5.85;;;5.07;;
59099;SDS011;44884;52.730;6.964;2022-10-17T12:53:38;5.68;;;5.18;;
59099;SDS011;44884;52.730;6.964;2022-10-17T12:56:06;5.28;;;4.78;;
59099;SDS011;44884;52.730;6.964;2022-10-17T12:58:33;6.10;;;5.10;;
59099;SDS011;44884;52.730;6.964;2022-10-17T13:00:59;5.47;;;4.50;;
59099;SDS011;44884;52.730;6.964;2022-10-17T13:03:27;6.50;;;4.80;;
59099;SDS011;44884;52.730;6.964;2022-10-17T13:05:54;7.25;;;4.97;;
59099;SDS011;44884;52.730;6.964;2022-10-17T13:08:21;6.57;;;5.05;;
59099;SDS011;44884;52.730;6.964;2022-10-17T13:10:49;11.52;;;5.40;;
59099;SDS011;44884;52.730;6.964;2022-10-17T13:13:24;7.88;;;5.57;;
59099;SDS011;44884;52.730;6.964;2022-10-17T13:15:52;6.95;;;5.50;;
59099;SDS011;44884;52.730;6.964;2022-10-17T13:18:20;6.68;;;5.03;;
59099;SDS011;44884;52.730;6.964;2022-10-17T13:20:53;9.15;;;5.70;;
59099;SDS011;44884;52.730;6.964;2022-10-17T13:25:45;6.90;;;5.32;;
59099;SDS011;44884;52.730;6.964;2022-10-17T13:28:11;6.25;;;5.65;;
59099;SDS011;44884;52.730;6.964;2022-10-17T13:30:38;6.68;;;5.70;;
59099;SDS011;44884;52.730;6.964;2022-10-17T13:33:15;5.70;;;4.97;;
59099;SDS011;44884;52.730;6.964;2022-10-17T13:35:43;8.77;;;5.57;;
59099;SDS011;44884;52.730;6.964;2022-10-17T13:38:09;5.75;;;5.07;;
59099;SDS011;44884;52.730;6.964;2022-10-17T13:40:39;7.57;;;5.50;;
59099;SDS011;44884;52.730;6.964;2022-10-17T13:43:10;7.07;;;6.38;;
59099;SDS011;44884;52.730;6.964;2022-10-17T13:45:38;5.78;;;5.07;;
59099;SDS011;44884;52.730;6.964;2022-10-17T13:48:06;7.07;;;6.07;;
59099;SDS011;44884;52.730;6.964;2022-10-17T13:50:35;7.90;;;6.25;;
59099;SDS011;44884;52.730;6.964;2022-10-17T13:55:37;8.52;;;5.88;;
59099;SDS011;44884;52.730;6.964;2022-10-17T13:58:14;8.07;;;5.82;;
59099;SDS011;44884;52.730;6.964;2022-10-17T14:00:40;6.45;;;4.95;;
59099;SDS011;44884;52.730;6.964;2022-10-17T14:03:06;6.40;;;5.80;;
59099;SDS011;44884;52.730;6.964;2022-10-17T14:05:32;6.25;;;5.63;;
59099;SDS011;44884;52.730;6.964;2022-10-17T14:07:59;5.75;;;5.13;;
59099;SDS011;44884;52.730;6.964;2022-10-17T14:10:34;5.85;;;5.20;;
59099;SDS011;44884;52.730;6.964;2022-10-17T14:13:02;7.03;;;4.70;;
59099;SDS011;44884;52.730;6.964;2022-10-17T14:15:29;6.25;;;5.55;;
59099;SDS011;44884;52.730;6.964;2022-10-17T14:17:59;6.28;;;4.93;;
59099;SDS011;44884;52.730;6.964;2022-10-17T14:20:26;5.53;;;5.00;;
59099;SDS011;44884;52.730;6.964;2022-10-17T14:22:53;11.40;;;4.43;;
59099;SDS011;44884;52.730;6.964;2022-10-17T14:25:27;5.95;;;4.85;;
59099;SDS011;44884;52.730;6.964;2022-10-17T14:27:54;4.85;;;4.40;;
59099;SDS011;44884;52.730;6.964;2022-10-17T14:32:59;5.10;;;4.10;;
59099;SDS011;44884;52.730;6.964;2022-10-17T14:35:27;4.53;;;4.13;;
59099;SDS011;44884;52.730;6.964;2022-10-17T14:37:57;6.35;;;4.25;;
59099;SDS011;44884;52.730;6.964;2022-10-17T14:40:24;6.18;;;5.22;;
59099;SDS011;44884;52.730;6.964;2022-10-17T14:42:51;4.97;;;4.45;;
59099;SDS011;44884;52.730;6.964;2022-10-17T14:47:49;4.22;;;3.65;;
59099;SDS011;44884;52.730;6.964;2022-10-17T14:50:19;4.68;;;4.18;;
59099;SDS011;44884;52.730;6.964;2022-10-17T14:55:25;8.02;;;3.92;;
59099;SDS011;44884;52.730;6.964;2022-10-17T14:57:51;4.30;;;3.65;;
59099;SDS011;44884;52.730;6.964;2022-10-17T15:00:18;5.25;;;3.80;;
59099;SDS011;44884;52.730;6.964;2022-10-17T15:02:44;5.95;;;3.67;;
59099;SDS011;44884;52.730;6.964;2022-10-17T15:05:11;4.20;;;3.80;;
59099;SDS011;44884;52.730;6.964;2022-10-17T15:07:37;4.63;;;3.88;;
59099;SDS011;44884;52.730;6.964;2022-10-17T15:10:03;6.03;;;3.72;;
59099;SDS011;44884;52.730;6.964;2022-10-17T15:12:30;3.85;;;3.55;;
59099;SDS011;44884;52.730;6.964;2022-10-17T15:14:56;3.83;;;3.42;;
59099;SDS011;44884;52.730;6.964;2022-10-17T15:17:27;3.30;;;3.00;;
59099;SDS011;44884;52.730;6.964;2022-10-17T15:19:54;3.80;;;3.20;;
59099;SDS011;44884;52.730;6.964;2022-10-17T15:22:20;5.65;;;4.13;;
59099;SDS011;44884;52.730;6.964;2022-10-17T15:24:46;3.78;;;3.45;;
59099;SDS011;44884;52.730;6.964;2022-10-17T15:27:22;4.55;;;3.47;;
59099;SDS011;44884;52.730;6.964;2022-10-17T15:29:48;3.45;;;3.15;;
59099;SDS011;44884;52.730;6.964;2022-10-17T15:32:15;3.70;;;2.95;;
59099;SDS011;44884;52.730;6.964;2022-10-17T15:34:41;3.67;;;3.33;;
59099;SDS011;44884;52.730;6.964;2022-10-17T15:37:13;3.95;;;2.72;;
59099;SDS011;44884;52.730;6.964;2022-10-17T15:42:10;3.55;;;3.17;;
59099;SDS011;44884;52.730;6.964;2022-10-17T15:44:36;4.57;;;3.55;;
59099;SDS011;44884;52.730;6.964;2022-10-17T15:47:04;4.07;;;2.97;;
59099;SDS011;44884;52.730;6.964;2022-10-17T15:49:31;3.50;;;3.20;;
59099;SDS011;44884;52.730;6.964;2022-10-17T15:51:58;4.00;;;2.92;;
59099;SDS011;44884;52.730;6.964;2022-10-17T15:54:24;3.08;;;2.85;;
59099;SDS011;44884;52.730;6.964;2022-10-17T15:56:51;5.60;;;3.10;;
59099;SDS011;44884;52.730;6.964;2022-10-17T15:59:19;3.42;;;2.97;;
59099;SDS011;44884;52.730;6.964;2022-10-17T16:01:47;2.95;;;2.75;;
59099;SDS011;44884;52.730;6.964;2022-10-17T16:04:13;3.38;;;3.08;;
59099;SDS011;44884;52.730;6.964;2022-10-17T16:06:40;3.30;;;3.00;;
59099;SDS011;44884;52.730;6.964;2022-10-17T16:09:06;4.20;;;2.88;;
59099;SDS011;44884;52.730;6.964;2022-10-17T16:11:42;2.72;;;2.53;;
59099;SDS011;44884;52.730;6.964;2022-10-17T16:14:10;4.18;;;3.25;;
59099;SDS011;44884;52.730;6.964;2022-10-17T16:16:36;3.35;;;2.80;;
59099;SDS011;44884;52.730;6.964;2022-10-17T16:19:02;3.85;;;2.90;;
59099;SDS011;44884;52.730;6.964;2022-10-17T16:21:29;4.38;;;3.13;;
59099;SDS011;44884;52.730;6.964;2022-10-17T16:23:56;3.78;;;3.10;;
59099;SDS011;44884;52.730;6.964;2022-10-17T16:26:22;3.05;;;2.80;;
59099;SDS011;44884;52.730;6.964;2022-10-17T16:28:49;2.65;;;2.45;;
59099;SDS011;44884;52.730;6.964;2022-10-17T16:31:25;3.17;;;2.58;;
59099;SDS011;44884;52.730;6.964;2022-10-17T16:33:53;3.53;;;2.75;;
59099;SDS011;44884;52.730;6.964;2022-10-17T16:36:19;3.45;;;2.85;;
59099;SDS011;44884;52.730;6.964;2022-10-17T16:38:45;3.38;;;2.72;;
59099;SDS011;44884;52.730;6.964;2022-10-17T16:41:22;3.35;;;2.92;;
59099;SDS011;44884;52.730;6.964;2022-10-17T16:43:49;3.13;;;2.53;;
59099;SDS011;44884;52.730;6.964;2022-10-17T16:46:15;3.55;;;2.63;;
59099;SDS011;44884;52.730;6.964;2022-10-17T16:48:45;4.07;;;2.75;;
59099;SDS011;44884;52.730;6.964;2022-10-17T16:51:11;3.50;;;2.53;;
59099;SDS011;44884;52.730;6.964;2022-10-17T16:53:38;3.08;;;2.63;;
59099;SDS011;44884;52.730;6.964;2022-10-17T16:56:08;3.17;;;2.40;;